< < Back
Terminal Aerodrome Forecast


Current Version              Previous Versions:   1  2  3  4  5  6  7  8  9  

Terminal Aerodrome Forecast

096
FTUS42 KJAX 291700
TAFSSI
TAF
KSSI 291721Z 2918/3018 11010KT P6SM FEW040
     FM300200 16006KT P6SM SKC
     FM301600 11010KT P6SM SCT040=

Latest METAR

736
SAUS70 KWBC 301200 RRN
MTRSSI
METAR KSSI 301153Z AUTO 00000KT 10SM BKN100 26/24 A3013 RMK AO2 SLP204
T02560239 10272 20239 53012


USA.gov is the U.S. government's official web portal to all federal, state and local government web resources and services.